Time;durP1;ratioP1;P1;durP2;ratioP2;P2;SDS_P1;SDS_P2;PMS_P1;PMS_P2;Temp;Humidity;BMP_temperature;BMP_pressure;BME280_temperature;BME280_humidity;BME280_pressure;Samples;Min_cycle;Max_cycle;Signal;HPM_P1;HPM_P2
2022/06/29 04:06:44;;;;;;;4.30;3.90;;;;;;;22.47;78.53;100328.00;5537322;28;20101;-86
2022/06/29 04:09:47;;;;;;;4.95;3.90;;;;;;;22.59;77.82;100327.84;5329939;33;34016;-86
2022/06/29 04:12:49;;;;;;;5.07;3.83;;;;;;;22.68;77.33;100326.28;5325362;33;34079;-86
2022/06/29 04:15:52;;;;;;;5.45;3.80;;;;;;;22.71;77.80;100336.75;5318758;33;34519;-86
2022/06/29 04:18:55;;;;;;;4.22;3.83;;;;;;;22.79;77.50;100336.28;5325068;33;34815;-86
2022/06/29 04:21:58;;;;;;;4.35;3.95;;;;;;;22.90;76.18;100325.37;5324589;33;34390;-86
2022/06/29 04:25:00;;;;;;;3.97;3.65;;;;;;;22.99;74.40;100327.44;5324540;33;33897;-86
2022/06/29 04:28:03;;;;;;;6.12;3.90;;;;;;;23.06;73.29;100313.50;5324684;33;34041;-86
2022/06/29 04:31:06;;;;;;;5.62;3.47;;;;;;;23.18;72.72;100321.56;5329724;33;34167;-86
2022/06/29 04:34:09;;;;;;;5.95;3.90;;;;;;;23.29;72.83;100335.09;5330629;33;34846;-86
2022/06/29 04:37:11;;;;;;;4.35;3.78;;;;;;;23.41;72.84;100323.09;5331768;33;34055;-86
2022/06/29 04:40:14;;;;;;;4.53;3.55;;;;;;;23.50;71.95;100329.75;5337929;33;33654;-86
2022/06/29 04:43:17;;;;;;;4.20;3.60;;;;;;;23.58;71.04;100332.00;5343844;33;34420;-86
2022/06/29 04:46:20;;;;;;;4.95;3.83;;;;;;;23.68;71.08;100333.97;5336121;33;34443;-86
2022/06/29 04:49:23;;;;;;;4.18;3.78;;;;;;;23.79;70.61;100332.16;5331607;33;34222;-88
2022/06/29 04:52:26;;;;;;;5.30;3.85;;;;;;;23.83;70.32;100331.34;5340982;33;34609;-88
2022/06/29 04:55:29;;;;;;;5.25;3.92;;;;;;;23.95;69.88;100329.19;5340113;33;33885;-89
2022/06/29 04:58:32;;;;;;;7.30;4.30;;;;;;;24.13;68.98;100327.94;5340289;33;34641;-89
2022/06/29 05:01:35;;;;;;;5.37;3.58;;;;;;;24.29;68.26;100326.03;5339789;33;34131;-85
2022/06/29 05:04:38;;;;;;;5.68;3.85;;;;;;;24.41;67.79;100332.13;5339735;33;34215;-85
2022/06/29 05:07:42;;;;;;;7.43;3.80;;;;;;;24.51;67.00;100338.78;5351281;33;34762;-85
2022/06/29 05:10:48;;;;;;;3.90;3.60;;;;;;;24.61;65.84;100328.63;5343987;33;32324;-85
2022/06/29 05:13:51;;;;;;;4.90;4.12;;;;;;;24.65;66.01;100335.22;5357204;33;34570;-85
2022/06/29 05:16:54;;;;;;;4.60;4.00;;;;;;;24.73;65.79;100339.38;5357519;33;34380;-85
2022/06/29 05:19:56;;;;;;;4.20;3.62;;;;;;;24.78;65.79;100344.91;5357033;33;34132;-84
2022/06/29 05:22:59;;;;;;;3.95;3.65;;;;;;;24.84;64.99;100343.81;5358542;33;34771;-84
2022/06/29 05:26:02;;;;;;;5.00;3.85;;;;;;;24.87;64.92;100339.69;5358855;33;34410;-85
2022/06/29 05:29:05;;;;;;;4.22;3.83;;;;;;;24.95;65.28;100341.91;5345773;33;32243;-85
2022/06/29 05:32:09;;;;;;;4.40;4.00;;;;;;;25.01;64.61;100335.31;5358401;33;34616;-85
2022/06/29 05:35:13;;;;;;;5.53;4.03;;;;;;;25.14;64.05;100341.38;5358061;33;33426;-85
2022/06/29 05:38:17;;;;;;;4.22;3.72;;;;;;;25.30;63.67;100334.75;5345191;33;32578;-85
2022/06/29 05:41:22;;;;;;;5.07;3.87;;;;;;;25.46;62.80;100339.16;5356100;33;33988;-85
2022/06/29 05:44:25;;;;;;;5.37;4.37;;;;;;;25.59;62.11;100326.72;5355641;33;34266;-85
2022/06/29 05:47:28;;;;;;;4.93;3.90;;;;;;;25.71;61.10;100323.66;5341560;33;34389;-85
2022/06/29 05:50:36;;;;;;;6.75;4.25;;;;;;;25.88;61.21;100335.22;5354852;33;34177;-85
2022/06/29 05:53:39;;;;;;;4.82;3.97;;;;;;;25.97;60.78;100322.53;5356852;33;35287;-85
2022/06/29 05:56:55;;;;;;;4.97;3.95;;;;;;;26.02;60.26;100328.00;5357927;33;35360;-85
2022/06/29 05:59:58;;;;;;;7.45;3.97;;;;;;;26.07;60.19;100315.31;5342203;33;35151;-85
2022/06/29 06:03:01;;;;;;;4.05;3.75;;;;;;;26.21;59.35;100319.94;5330366;33;32829;-86
2022/06/29 06:06:04;;;;;;;4.50;4.10;;;;;;;26.39;58.50;100315.69;5356916;33;33793;-86
2022/06/29 06:09:07;;;;;;;6.45;3.70;;;;;;;26.52;57.18;100316.19;5342041;33;34583;-85
2022/06/29 06:12:13;;;;;;;5.40;4.00;;;;;;;26.67;56.54;100307.81;5348850;33;34319;-85
2022/06/29 06:15:18;;;;;;;4.70;3.57;;;;;;;26.83;56.17;100309.34;5347501;33;34866;-86
2022/06/29 06:18:21;;;;;;;5.10;3.80;;;;;;;26.94;56.12;100312.03;5338166;33;35395;-85
2022/06/29 06:21:24;;;;;;;5.72;3.78;;;;;;;27.12;55.99;100305.81;5327539;33;34236;-86
2022/06/29 06:24:28;;;;;;;7.05;3.70;;;;;;;27.11;54.74;100302.19;5336872;33;34326;-85
2022/06/29 06:27:31;;;;;;;6.60;4.03;;;;;;;27.28;55.38;100307.34;5338285;33;33742;-85
2022/06/29 06:30:34;;;;;;;5.97;4.20;;;;;;;27.35;55.41;100307.84;5345963;33;34472;-86
2022/06/29 06:33:37;;;;;;;5.00;3.60;;;;;;;27.45;55.72;100306.91;5349130;33;34953;-85
2022/06/29 06:36:39;;;;;;;4.25;3.50;;;;;;;27.62;54.93;100300.09;5348712;33;33863;-86
2022/06/29 06:41:21;;;;;;;3.97;3.58;;;;;;;27.86;53.21;100302.91;5348006;33;33884;-85
2022/06/29 06:43:08;;;;;;;8.32;3.60;;;;;;;28.02;52.94;100296.88;5336293;33;33429;-89
2022/06/29 06:46:11;;;;;;;4.03;3.58;;;;;;;27.96;52.73;100295.31;5354186;33;34303;-86
2022/06/29 06:49:22;;;;;;;4.65;3.55;;;;;;;27.89;53.05;100299.53;5344435;33;34227;-86
2022/06/29 06:52:25;;;;;;;4.85;3.30;;;;;;;28.03;51.70;100292.16;5349310;33;34831;-85
2022/06/29 06:55:29;;;;;;;4.37;3.87;;;;;;;28.19;51.16;100293.59;5342610;33;34822;-85
2022/06/29 06:58:31;;;;;;;6.32;3.50;;;;;;;28.19;52.38;100292.78;5336206;33;32248;-86
2022/06/29 07:01:34;;;;;;;4.72;3.60;;;;;;;28.24;52.58;100282.44;5348226;33;34509;-85
2022/06/29 07:04:37;;;;;;;6.50;3.12;;;;;;;28.37;51.99;100282.81;5354667;33;34416;-85
2022/06/29 07:07:40;;;;;;;4.10;3.67;;;;;;;28.44;52.00;100280.56;5331115;33;32231;-85
2022/06/29 07:10:43;;;;;;;3.70;3.40;;;;;;;28.46;51.62;100281.06;5337171;33;34381;-85
2022/06/29 07:13:46;;;;;;;5.07;3.80;;;;;;;28.46;51.72;100283.81;5340363;33;34903;-85
2022/06/29 07:16:49;;;;;;;4.43;3.85;;;;;;;28.70;51.03;100289.31;5339314;33;32407;-85
2022/06/29 07:19:52;;;;;;;5.35;3.42;;;;;;;28.85;50.87;100282.69;5323852;33;32347;-85
2022/06/29 07:22:55;;;;;;;4.50;3.72;;;;;;;28.93;48.88;100282.00;5342941;33;34220;-85
2022/06/29 07:26:00;;;;;;;7.93;3.70;;;;;;;29.17;49.69;100273.56;5337945;33;33890;-85
2022/06/29 07:29:02;;;;;;;4.07;3.72;;;;;;;29.21;49.75;100269.06;5328013;33;33326;-85
2022/06/29 07:32:06;;;;;;;8.43;3.58;;;;;;;29.27;50.10;100267.00;5346626;33;34791;-84
2022/06/29 07:35:08;;;;;;;4.35;3.72;;;;;;;29.50;48.54;100270.75;5334297;33;33963;-85
2022/06/29 07:38:11;;;;;;;4.72;3.80;;;;;;;29.60;46.48;100263.06;5349158;33;34963;-85
2022/06/29 07:41:14;;;;;;;5.00;3.85;;;;;;;29.71;46.22;100271.19;5342725;33;34009;-85
2022/06/29 07:44:17;;;;;;;5.40;3.65;;;;;;;29.97;47.03;100272.28;5347250;33;34512;-85
2022/06/29 07:47:20;;;;;;;4.65;3.67;;;;;;;30.19;46.41;100276.28;5340991;33;34032;-85
2022/06/29 07:50:23;;;;;;;5.22;3.58;;;;;;;30.16;44.79;100271.34;5335633;33;34324;-85
2022/06/29 07:53:26;;;;;;;7.82;3.42;;;;;;;30.12;44.74;100262.81;5345709;33;35384;-85
2022/06/29 07:56:30;;;;;;;5.20;3.70;;;;;;;30.23;44.93;100263.44;5350927;33;34110;-86
2022/06/29 07:59:33;;;;;;;4.62;3.60;;;;;;;30.68;44.31;100255.16;5342676;33;34171;-86
2022/06/29 08:02:36;;;;;;;4.90;3.40;;;;;;;30.85;44.04;100255.31;5336953;33;34517;-86
2022/06/29 08:05:39;;;;;;;4.93;3.30;;;;;;;30.91;43.66;100267.13;5347000;33;34171;-85
2022/06/29 08:08:42;;;;;;;3.92;3.53;;;;;;;31.04;43.05;100259.84;5332377;33;32241;-85
2022/06/29 08:11:45;;;;;;;3.87;3.50;;;;;;;31.02;42.26;100259.34;5348806;33;34379;-87
2022/06/29 08:14:48;;;;;;;4.30;3.37;;;;;;;31.20;42.06;100255.50;5334765;33;34137;-86
2022/06/29 08:17:52;;;;;;;3.65;3.22;;;;;;;31.35;41.75;100249.56;5328201;33;34258;-87
2022/06/29 08:20:55;;;;;;;3.55;3.25;;;;;;;31.55;41.80;100250.97;5330364;33;33949;-87
2022/06/29 08:23:58;;;;;;;3.60;3.30;;;;;;;31.73;40.34;100251.00;5323542;33;32380;-87
2022/06/29 08:27:00;;;;;;;5.07;3.45;;;;;;;31.76;40.14;100239.22;5339310;33;33759;-86
2022/06/29 08:30:23;;;;;;;9.10;3.08;;;;;;;31.80;39.38;100238.28;5345606;33;34362;-87
2022/06/29 08:33:26;;;;;;;2.80;2.55;;;;;;;31.94;37.92;100243.75;5335813;33;33674;-86
2022/06/29 08:36:29;;;;;;;4.35;2.85;;;;;;;31.89;36.96;100240.25;5344241;33;34301;-87
2022/06/29 08:39:51;;;;;;;3.67;3.37;;;;;;;32.03;37.64;100239.00;5337729;33;34139;-87
2022/06/29 08:42:54;;;;;;;3.12;2.83;;;;;;;32.16;37.83;100236.41;5327965;33;34353;-87
2022/06/29 08:46:00;;;;;;;2.97;2.78;;;;;;;32.06;37.61;100238.34;5329189;33;34140;-87
2022/06/29 08:49:03;;;;;;;9.00;3.10;;;;;;;32.15;38.83;100227.22;5330521;33;34022;-86
2022/06/29 08:52:09;;;;;;;3.80;2.83;;;;;;;32.36;36.69;100221.00;5335204;33;34456;-87
2022/06/29 08:55:12;;;;;;;5.00;3.08;;;;;;;32.53;36.76;100229.38;5338915;33;33998;-87
2022/06/29 08:58:20;;;;;;;5.18;2.87;;;;;;;32.76;36.71;100224.41;5331687;33;34890;-87
2022/06/29 09:01:22;;;;;;;3.12;2.80;;;;;;;32.65;35.73;100223.16;5334330;33;35633;-86
2022/06/29 09:04:25;;;;;;;3.22;2.78;;;;;;;32.84;35.43;100220.78;5336316;33;34426;-87
2022/06/29 09:07:28;;;;;;;4.22;2.83;;;;;;;33.04;34.94;100212.91;5321866;33;33135;-88
2022/06/29 09:10:31;;;;;;;2.92;2.58;;;;;;;33.22;34.54;100222.03;5332223;33;34375;-88
2022/06/29 09:13:34;;;;;;;4.37;2.70;;;;;;;33.34;34.87;100210.97;5328945;33;34081;-88
2022/06/29 09:16:49;;;;;;;4.75;2.50;;;;;;;33.47;34.03;100207.16;5324888;33;34072;-87
2022/06/29 09:19:53;;;;;;;2.37;2.17;;;;;;;33.76;34.41;100202.75;5327389;33;33921;-88
2022/06/29 09:23:18;;;;;;;4.55;2.40;;;;;;;33.86;33.89;100197.59;5338465;33;33771;-87
2022/06/29 09:26:29;;;;;;;3.78;2.83;;;;;;;33.93;32.44;100201.81;5343325;33;33777;-88
2022/06/29 09:29:41;;;;;;;2.60;2.40;;;;;;;34.17;32.47;100206.78;5325883;33;32603;-88
2022/06/29 09:32:59;;;;;;;2.55;2.35;;;;;;;34.23;32.29;100194.22;5320461;33;33820;-87
2022/06/29 09:36:14;;;;;;;2.33;2.12;;;;;;;34.45;32.34;100201.41;5332057;33;34400;-88
2022/06/29 09:39:32;;;;;;;5.45;2.20;;;;;;;34.42;30.88;100190.94;5335442;33;34843;-88
2022/06/29 09:42:34;;;;;;;3.57;2.93;;;;;;;34.48;31.07;100187.56;5335645;33;34137;-89
2022/06/29 09:45:38;;;;;;;2.47;2.20;;;;;;;34.57;31.30;100192.28;5338537;33;34505;-89
2022/06/29 09:48:42;;;;;;;2.75;2.50;;;;;;;34.51;31.62;100189.66;5328411;33;33089;-87
2022/06/29 09:51:48;;;;;;;2.35;2.15;;;;;;;34.87;31.04;100184.56;5337348;33;35443;-87
2022/06/29 09:54:52;;;;;;;3.75;2.50;;;;;;;34.96;30.53;100179.72;5337604;33;34320;-87
2022/06/29 09:57:57;;;;;;;3.53;2.25;;;;;;;35.06;30.48;100187.66;5342578;33;33663;-87
2022/06/29 10:04:27;;;;;;;2.80;2.47;;;;;;;34.83;29.95;100169.66;5332108;33;33925;-89
2022/06/29 10:07:31;;;;;;;2.33;2.08;;;;;;;34.75;30.04;100169.41;5313036;33;32217;-89
2022/06/29 10:10:34;;;;;;;3.67;2.10;;;;;;;35.01;30.57;100167.44;5301084;33;33414;-90
2022/06/29 10:13:42;;;;;;;2.40;2.20;;;;;;;35.30;28.54;100158.06;5324808;33;34719;-88
2022/06/29 10:17:02;;;;;;;3.78;2.53;;;;;;;35.67;28.05;100156.09;5334332;28;34664;-89
2022/06/29 10:20:27;;;;;;;4.18;2.05;;;;;;;35.61;27.87;100146.28;5299844;33;34003;-85
2022/06/29 10:23:44;;;;;;;;;;;;;;;35.44;26.45;100159.34;5303017;33;33587;-86
2022/06/29 10:26:48;;;;;;;2.40;2.20;;;;;;;35.79;25.91;100146.84;5300331;33;34794;-86
2022/06/29 10:29:51;;;;;;;2.45;2.25;;;;;;;35.92;26.25;100136.41;5290652;33;32469;-87
2022/06/29 10:33:29;;;;;;;2.28;2.17;;;;;;;36.25;26.22;100133.41;5297529;33;33836;-87
2022/06/29 10:37:14;;;;;;;2.10;2.00;;;;;;;36.19;26.53;100127.25;5290951;33;33196;-87
2022/06/29 10:40:20;;;;;;;3.12;2.30;;;;;;;36.29;24.91;100140.72;5302319;33;34019;-88
2022/06/29 10:43:23;;;;;;;3.05;2.35;;;;;;;36.46;25.96;100130.38;5307501;33;33740;-89
2022/06/29 10:46:25;;;;;;;2.47;2.28;;;;;;;36.88;25.68;100113.88;5306862;33;32394;-88
2022/06/29 10:49:35;;;;;;;2.12;1.95;;;;;;;37.21;25.27;100129.56;5295942;33;33741;-87
2022/06/29 10:52:38;;;;;;;3.33;2.47;;;;;;;37.50;24.12;100119.84;5294907;33;32604;-88
2022/06/29 10:55:43;;;;;;;4.32;2.00;;;;;;;37.39;24.21;100122.37;5292980;33;33737;-88
2022/06/29 10:58:46;;;;;;;2.78;2.25;;;;;;;37.18;24.47;100110.66;5302289;33;34014;-87
2022/06/29 11:02:09;;;;;;;3.75;2.15;;;;;;;37.88;23.69;100107.84;5302494;33;32493;-87
2022/06/29 11:05:12;;;;;;;3.28;2.45;;;;;;;37.80;24.27;100108.06;5298396;33;35504;-88
2022/06/29 11:18:40;;;;;;;3.50;2.10;;;;;;;38.81;22.59;100088.34;5263423;33;32415;-88
2022/06/29 11:22:15;;;;;;;3.50;2.30;;;;;;;39.23;21.62;100093.88;5289665;33;34028;-87
2022/06/29 11:25:18;;;;;;;2.15;2.00;;;;;;;39.61;22.03;100086.41;5290706;33;32926;-87
2022/06/29 11:28:27;;;;;;;2.60;2.40;;;;;;;40.27;20.86;100076.34;5268203;33;33389;-87
2022/06/29 11:31:30;;;;;;;2.53;2.33;;;;;;;41.38;19.89;100071.66;5285838;33;34410;-88
2022/06/29 11:34:34;;;;;;;3.05;2.25;;;;;;;42.08;19.74;100077.28;5286647;33;32535;-88
2022/06/29 11:37:37;;;;;;;3.15;1.95;;;;;;;42.78;18.20;100070.13;5287939;33;33950;-86
2022/06/29 11:40:42;;;;;;;2.75;2.20;;;;;;;42.23;17.84;100072.44;5288403;33;33957;-85
2022/06/29 11:43:45;;;;;;;2.70;2.10;;;;;;;43.10;17.40;100062.84;5289736;33;35473;-87
2022/06/29 11:46:48;;;;;;;2.35;1.80;;;;;;;43.01;17.46;100058.38;5288537;33;34597;-87
2022/06/29 11:49:50;;;;;;;2.60;2.33;;;;;;;43.09;17.40;100047.88;5288545;33;34140;-84
2022/06/29 11:52:53;;;;;;;2.10;2.00;;;;;;;44.51;16.89;100042.00;5276247;33;32575;-85
2022/06/29 11:55:57;;;;;;;3.78;1.90;;;;;;;44.83;16.42;100040.94;5277134;33;32969;-85
2022/06/29 11:59:04;;;;;;;2.00;1.90;;;;;;;44.79;15.95;100040.97;5290136;33;33547;-86
2022/06/29 12:02:09;;;;;;;1.77;1.67;;;;;;;44.61;16.01;100029.72;5293305;33;36577;-85
2022/06/29 12:05:12;;;;;;;3.22;2.08;;;;;;;44.65;16.11;100032.56;5286119;33;34247;-85
2022/06/29 12:08:14;;;;;;;3.75;1.80;;;;;;;45.92;15.23;100023.84;5291430;33;32581;-87
2022/06/29 12:11:19;;;;;;;4.05;1.90;;;;;;;46.18;14.93;100020.63;5290035;33;34804;-86
2022/06/29 12:14:21;;;;;;;2.50;1.70;;;;;;;46.14;14.34;100012.97;5289461;33;33938;-87
2022/06/29 12:17:24;;;;;;;2.20;1.83;;;;;;;46.14;14.43;100012.97;5301642;33;35054;-85
2022/06/29 12:20:27;;;;;;;1.83;1.73;;;;;;;46.62;14.34;100025.22;5304306;33;33872;-86
2022/06/29 12:23:39;;;;;;;2.30;1.65;;;;;;;46.61;13.83;100014.28;5293990;33;32281;-87
2022/06/29 12:26:43;;;;;;;2.45;1.70;;;;;;;46.94;13.76;100010.41;5317444;33;34959;-88
2022/06/29 12:29:46;;;;;;;2.72;1.80;;;;;;;46.71;14.54;100008.41;5314834;33;34937;-90
2022/06/29 12:32:48;;;;;;;1.80;1.70;;;;;;;46.79;14.64;100006.22;5306184;33;33774;-91
2022/06/29 12:35:52;;;;;;;2.87;1.87;;;;;;;46.63;15.11;99991.84;5303394;33;34880;-90
2022/06/29 12:38:55;;;;;;;2.83;1.60;;;;;;;47.34;14.81;99984.00;5311914;33;35076;-87
2022/06/29 12:41:58;;;;;;;1.80;1.70;;;;;;;48.08;13.75;99992.16;5304340;33;33868;-85
2022/06/29 12:45:00;;;;;;;1.60;1.50;;;;;;;48.09;13.36;99991.72;5303745;33;34398;-87
2022/06/29 12:48:04;;;;;;;2.55;1.50;;;;;;;48.12;13.03;99984.31;5304639;33;34089;-86
2022/06/29 12:51:06;;;;;;;1.77;1.55;;;;;;;47.85;13.21;99976.78;5291478;33;33606;-86
2022/06/29 12:54:10;;;;;;;1.85;1.75;;;;;;;47.98;12.67;99979.75;5299873;33;34890;-86
2022/06/29 12:57:12;;;;;;;2.83;1.83;;;;;;;47.68;13.04;99987.34;5291413;33;33145;-86
2022/06/29 13:00:16;;;;;;;4.28;1.52;;;;;;;47.51;12.93;99976.31;5308955;33;34873;-86
2022/06/29 13:03:18;;;;;;;1.75;1.62;;;;;;;47.64;12.59;99980.91;5307658;33;34098;-85
2022/06/29 13:06:22;;;;;;;2.28;1.33;;;;;;;47.90;12.53;99979.13;5291230;33;33026;-85
2022/06/29 13:09:25;;;;;;;1.50;1.40;;;;;;;48.05;12.59;99967.34;5302142;33;220529;-86
2022/06/29 13:12:27;;;;;;;1.95;1.40;;;;;;;48.06;12.66;99964.03;5295158;33;33674;-85
2022/06/29 13:15:30;;;;;;;3.87;1.90;;;;;;;48.76;11.48;99974.12;5311533;33;34299;-85
2022/06/29 13:18:34;;;;;;;1.70;1.60;;;;;;;47.99;12.38;99969.13;5309419;33;34153;-86
2022/06/29 13:21:38;;;;;;;1.60;1.50;;;;;;;48.66;12.06;99963.00;5293370;33;32444;-86
2022/06/29 13:24:42;;;;;;;2.05;1.65;;;;;;;48.93;11.97;99957.75;5305227;33;34045;-86
2022/06/29 13:27:44;;;;;;;3.75;1.90;;;;;;;48.26;12.26;99964.00;5302002;33;33556;-86
2022/06/29 13:30:47;;;;;;;2.25;1.77;;;;;;;48.94;12.33;99952.84;5310958;33;34689;-86
2022/06/29 13:33:50;;;;;;;1.70;1.60;;;;;;;49.32;11.83;99955.03;5308585;33;34478;-85
2022/06/29 13:36:56;;;;;;;3.50;1.70;;;;;;;49.45;11.83;99947.28;5309172;33;33651;-86
2022/06/29 13:39:59;;;;;;;3.20;1.70;;;;;;;48.91;12.21;99936.59;5308552;33;34840;-85
2022/06/29 13:43:02;;;;;;;2.00;1.60;;;;;;;48.23;12.85;99950.59;5309193;33;33667;-87
2022/06/29 13:46:09;;;;;;;1.67;1.50;;;;;;;48.14;12.18;99941.88;5306168;33;34182;-87
2022/06/29 13:49:12;;;;;;;1.75;1.65;;;;;;;48.08;12.64;99940.78;5308528;33;33810;-86
2022/06/29 13:52:15;;;;;;;1.55;1.45;;;;;;;47.42;12.85;99951.25;5296644;33;32728;-86
2022/06/29 13:55:18;;;;;;;1.65;1.52;;;;;;;47.57;12.55;99954.63;5312022;33;34838;-86
2022/06/29 13:58:21;;;;;;;1.50;1.40;;;;;;;46.85;13.11;99950.34;5316623;33;34177;-86
2022/06/29 14:01:24;;;;;;;1.70;1.60;;;;;;;47.07;13.29;99938.53;5304586;33;32583;-86
2022/06/29 14:04:28;;;;;;;1.70;1.58;;;;;;;46.78;13.87;99936.25;5304787;33;34309;-86
2022/06/29 14:07:31;;;;;;;3.70;1.60;;;;;;;45.48;14.49;99940.28;5307694;33;34087;-86
2022/06/29 14:10:54;;;;;;;1.87;1.77;;;;;;;43.74;16.01;99926.56;5302219;33;34514;-87
2022/06/29 14:13:57;;;;;;;1.75;1.65;;;;;;;42.25;17.66;99937.06;5316409;33;34027;-87
2022/06/29 14:17:00;;;;;;;1.52;1.48;;;;;;;41.09;18.35;99935.09;5294495;33;32907;-87
2022/06/29 14:20:04;;;;;;;4.22;1.62;;;;;;;40.76;18.58;99934.09;5315528;33;35187;-87
2022/06/29 14:23:06;;;;;;;2.15;2.00;;;;;;;40.31;19.14;99935.34;5295381;33;34730;-87
2022/06/29 14:26:09;;;;;;;3.17;2.00;;;;;;;40.08;19.40;99932.72;5295572;33;33937;-87
2022/06/29 14:29:12;;;;;;;2.20;1.80;;;;;;;39.45;19.59;99932.44;5310411;33;34145;-88
2022/06/29 14:32:15;;;;;;;3.17;2.10;;;;;;;38.91;20.33;99928.09;5308179;33;33563;-90
2022/06/29 14:35:29;;;;;;;2.15;1.92;;;;;;;38.73;20.67;99924.19;5301800;33;34131;-88
2022/06/29 14:38:32;;;;;;;2.22;2.03;;;;;;;38.25;21.09;99929.44;5297015;33;32759;-87
2022/06/29 14:41:35;;;;;;;2.92;2.40;;;;;;;38.10;20.95;99926.38;5308191;33;33889;-87
2022/06/29 14:44:38;;;;;;;2.95;1.90;;;;;;;37.61;21.31;99923.44;5295188;33;33733;-87
2022/06/29 14:47:41;;;;;;;2.65;2.30;;;;;;;37.57;21.46;99903.72;5307616;33;33905;-87
2022/06/29 14:50:43;;;;;;;3.95;1.95;;;;;;;37.45;21.85;99901.84;5294551;33;33092;-87
2022/06/29 14:53:46;;;;;;;1.90;1.80;;;;;;;37.26;22.46;99887.81;5288324;33;32278;-86
2022/06/29 14:56:49;;;;;;;4.90;2.10;;;;;;;37.43;22.10;99883.75;5303997;33;33383;-87
2022/06/29 15:00:12;;;;;;;2.12;2.03;;;;;;;37.18;22.60;99883.25;5308526;33;34827;-87
2022/06/29 15:03:15;;;;;;;2.45;2.17;;;;;;;37.04;22.55;99889.38;5295356;33;32167;-86
2022/06/29 15:06:19;;;;;;;3.55;1.92;;;;;;;36.91;22.79;99885.84;5309054;33;33422;-87
2022/06/29 15:09:21;;;;;;;2.20;2.10;;;;;;;36.84;22.63;99887.72;5308017;33;34428;-87
2022/06/29 15:12:25;;;;;;;3.72;1.75;;;;;;;36.80;23.01;99876.41;5308550;33;34764;-87
2022/06/29 15:15:30;;;;;;;2.10;1.95;;;;;;;36.55;22.84;99881.44;5307256;33;33750;-87
2022/06/29 15:18:34;;;;;;;2.10;2.00;;;;;;;36.16;22.96;99875.69;5307432;33;33955;-87
2022/06/29 15:21:36;;;;;;;4.30;1.90;;;;;;;36.09;23.33;99875.50;5307374;33;35469;-87
2022/06/29 15:24:39;;;;;;;3.92;2.50;;;;;;;35.90;23.73;99872.59;5305339;33;34797;-87
2022/06/29 15:27:42;;;;;;;4.30;1.90;;;;;;;35.90;23.51;99872.59;5294194;33;33030;-87
2022/06/29 15:30:44;;;;;;;2.97;2.03;;;;;;;35.79;23.79;99866.72;5294757;33;32305;-87
2022/06/29 15:40:29;;;;;;;2.22;2.03;;;;;;;35.76;24.16;99853.44;5297619;33;33227;-87
2022/06/29 15:43:33;;;;;;;2.70;2.50;;;;;;;35.65;24.31;99853.12;5325426;33;35219;-87
2022/06/29 15:46:35;;;;;;;2.70;2.50;;;;;;;35.55;24.33;99851.69;5304806;33;32733;-87
2022/06/29 15:49:38;;;;;;;2.33;2.12;;;;;;;35.40;24.58;99849.66;5295331;33;32491;-87
2022/06/29 15:52:41;;;;;;;3.25;2.40;;;;;;;35.17;24.67;99846.63;5307129;33;34867;-87
2022/06/29 15:55:45;;;;;;;2.70;2.50;;;;;;;35.18;25.09;99843.44;5306993;33;34078;-87
2022/06/29 15:58:47;;;;;;;2.47;2.28;;;;;;;35.15;24.85;99844.16;5286398;33;33366;-87
2022/06/29 16:01:50;;;;;;;2.33;2.20;;;;;;;35.16;24.80;99840.22;5307814;33;34098;-87
2022/06/29 16:04:53;;;;;;;2.15;1.95;;;;;;;35.09;24.75;99831.59;5309299;33;33976;-87
